カンゲルルススアーク の空港の天気 - METARとTAF

カンゲルルススアーク空港 ( BGSF / SFJ ) - グリーンランド カンゲルルススアーク
飛行場実況気象(Metar)
観測時間10/21 13:50 WGST (10/21 15:50 UTC)
風向・風速西 3m/s
視程-
天気現象
全天の4割程度の雲 雲底高度 730m
全天の8割程度の雲 雲底高度 1070m
気温2℃
湿度75%
気圧1008hPa
METARBGSF 211550Z AUTO 26006KT 9999NDV SCT024/// BKN035/// 02/M02 Q1008
過去の天気等 Google飛行場航空写真 Wunderground天気予報

過去48時間のMETAR

飛行場予報(TAF)
発表時間: 10/21 13:44 WGST (10/21 15:44 UTC)
予報対象時間: 21日13時 WGST ~ 21日23時 WGST
風向・風速西南西 4m/s
視程10km以上
全天の4割程度の雲 雲底高度 760m
全天の8割程度の雲 雲底高度 1830m
21日13時 WGST ~ 21日23時 WGST に一時的に
視程5000m
天気現象弱いしゅう雪
全天の8割程度の雲 雲底高度 610m
全天の4割程度の塔状積雲 雲底高度 910m
TAF AMD BGSF 211544Z 2115/2201 24008KT 9999 SCT025 BKN060
TEMPO 2115/2201 5000 -SHSN BKN020 SCT030TCU